createdAt,value
2022-12-04T00:01:32.086Z,21.65
2022-12-04T00:04:00.462Z,22.25
2022-12-04T00:06:27.283Z,21.77
2022-12-04T00:08:53.946Z,22.45
2022-12-04T00:11:22.104Z,22.85
2022-12-04T00:13:48.991Z,23.23
2022-12-04T00:16:17.030Z,23.23
2022-12-04T00:18:43.422Z,22.10
2022-12-04T00:21:10.681Z,22.45
2022-12-04T00:23:37.524Z,23.30
2022-12-04T00:26:05.217Z,22.58
2022-12-04T00:28:31.546Z,20.67
2022-12-04T00:30:57.842Z,22.42
2022-12-04T00:33:24.219Z,22.48
2022-12-04T00:35:56.661Z,22.15
2022-12-04T00:38:22.951Z,22.65
2022-12-04T00:40:50.079Z,23.17
2022-12-04T00:43:16.682Z,21.52
2022-12-04T00:45:43.129Z,23.65
2022-12-04T00:48:09.767Z,22.95
2022-12-04T00:50:36.320Z,24.17
2022-12-04T00:53:02.631Z,23.55
2022-12-04T00:55:28.947Z,22.55
2022-12-04T00:57:59.735Z,18.83
2022-12-04T01:00:26.380Z,22.70
2022-12-04T01:02:52.791Z,22.58
2022-12-04T01:05:19.191Z,23.65
2022-12-04T01:07:45.534Z,18.52
2022-12-04T01:10:12.335Z,21.92
2022-12-04T01:12:38.649Z,23.38
2022-12-04T01:15:05.290Z,22.15
2022-12-04T01:17:31.634Z,23.15
2022-12-04T01:19:58.134Z,23.40
2022-12-04T01:22:24.627Z,24.80
2022-12-04T01:24:50.964Z,21.77
2022-12-04T01:27:17.243Z,23.02
2022-12-04T01:29:43.534Z,22.70
2022-12-04T01:32:09.990Z,23.75
2022-12-04T01:34:36.344Z,25.00
2022-12-04T01:37:02.632Z,23.23
2022-12-04T01:39:28.926Z,23.55
2022-12-04T01:41:55.241Z,23.63
2022-12-04T01:44:23.323Z,24.33
2022-12-04T01:46:53.965Z,24.40
2022-12-04T01:49:37.734Z,24.55
2022-12-04T01:52:09.280Z,24.75
2022-12-04T01:54:39.426Z,24.23
2022-12-04T01:57:08.834Z,23.50
2022-12-04T01:59:37.690Z,24.95
2022-12-04T02:02:11.878Z,24.42
2022-12-04T02:04:39.898Z,24.77
2022-12-04T02:07:06.264Z,22.35
2022-12-04T02:09:33.017Z,24.85
2022-12-04T02:12:07.486Z,25.48
2022-12-04T02:14:36.908Z,25.38
2022-12-04T02:17:08.990Z,25.73
2022-12-04T02:19:54.457Z,24.95
2022-12-04T02:22:29.642Z,25.77
2022-12-04T02:25:01.502Z,25.17
2022-12-04T02:27:40.135Z,23.05
2022-12-04T02:30:08.356Z,24.63
2022-12-04T02:32:40.597Z,27.48
2022-12-04T02:35:07.002Z,24.88
2022-12-04T02:37:35.919Z,26.05
2022-12-04T02:40:25.380Z,25.00
2022-12-04T02:43:17.776Z,26.50
2022-12-04T02:45:48.519Z,26.05
2022-12-04T02:48:19.077Z,24.77
2022-12-04T02:50:46.139Z,24.08
2022-12-04T02:53:14.998Z,25.17
2022-12-04T02:55:47.196Z,24.08
2022-12-04T02:58:20.245Z,24.75
2022-12-04T03:00:47.789Z,24.33
2022-12-04T03:03:20.405Z,25.08
2022-12-04T03:05:49.677Z,25.08
2022-12-04T03:08:18.105Z,24.65
2022-12-04T03:10:47.011Z,25.17
2022-12-04T03:13:20.094Z,24.52
2022-12-04T03:15:53.348Z,25.67
2022-12-04T03:18:26.372Z,25.35
2022-12-04T03:20:55.138Z,25.25
2022-12-04T03:23:26.097Z,24.98
2022-12-04T03:26:05.970Z,24.40
2022-12-04T03:28:46.014Z,25.92
2022-12-04T03:31:14.911Z,24.05
2022-12-04T03:33:42.727Z,24.85
2022-12-04T03:36:19.575Z,24.70
2022-12-04T03:38:56.498Z,25.02
2022-12-04T03:41:38.069Z,24.13
2022-12-04T03:44:08.464Z,25.98
2022-12-04T03:47:04.511Z,26.05
2022-12-04T03:49:37.183Z,25.75
2022-12-04T03:52:16.887Z,25.13
2022-12-04T03:54:48.982Z,25.27
2022-12-04T03:57:20.327Z,25.30
2022-12-04T03:59:55.482Z,24.25
2022-12-04T04:02:24.690Z,25.17
2022-12-04T04:04:52.971Z,26.02
2022-12-04T04:07:35.144Z,26.38
2022-12-04T04:10:05.639Z,24.48
2022-12-04T04:12:35.451Z,25.73
2022-12-04T04:15:23.316Z,27.58
2022-12-04T04:18:08.628Z,26.27
2022-12-04T04:21:04.622Z,26.35
2022-12-04T04:23:51.486Z,26.27
2022-12-04T04:26:18.217Z,26.38
2022-12-04T04:28:44.515Z,25.80
2022-12-04T04:31:24.842Z,25.05
2022-12-04T04:34:10.019Z,25.75
2022-12-04T04:36:45.345Z,26.95
2022-12-04T04:39:23.577Z,26.33
2022-12-04T04:41:59.307Z,24.77
2022-12-04T04:44:28.410Z,25.90
2022-12-04T04:46:58.309Z,25.65
2022-12-04T04:49:28.151Z,26.10
2022-12-04T04:51:55.161Z,26.33
2022-12-04T04:54:21.870Z,27.70
2022-12-04T04:56:48.236Z,27.45
2022-12-04T04:59:14.695Z,26.02
2022-12-04T05:01:42.629Z,25.65
2022-12-04T05:04:09.203Z,26.75
2022-12-04T05:06:35.513Z,24.50
2022-12-04T05:09:02.987Z,23.58
2022-12-04T05:11:29.366Z,24.67
2022-12-04T05:13:55.740Z,24.88
2022-12-04T05:16:22.165Z,26.20
2022-12-04T05:19:07.329Z,24.77
2022-12-04T05:21:33.807Z,26.52
2022-12-04T05:24:00.135Z,27.17
2022-12-04T05:26:26.487Z,25.35
2022-12-04T05:28:52.787Z,24.85
2022-12-04T05:31:19.196Z,26.20
2022-12-04T05:33:45.519Z,26.88
2022-12-04T05:36:13.182Z,25.77
2022-12-04T05:38:39.523Z,25.58
2022-12-04T05:41:06.279Z,23.33
2022-12-04T05:43:33.014Z,25.27
2022-12-04T05:46:03.206Z,25.58
2022-12-04T05:48:29.589Z,26.55
2022-12-04T05:50:55.957Z,25.50
2022-12-04T05:53:22.297Z,26.45
2022-12-04T05:55:58.640Z,26.92
2022-12-04T05:58:25.193Z,26.27
2022-12-04T06:00:51.651Z,25.25
2022-12-04T06:03:18.089Z,26.35
2022-12-04T06:05:44.516Z,27.48
2022-12-04T06:08:10.831Z,26.92
2022-12-04T06:10:37.260Z,25.60
2022-12-04T06:13:04.997Z,27.30
2022-12-04T06:15:31.393Z,25.20
2022-12-04T06:17:57.691Z,25.88
2022-12-04T06:20:24.080Z,26.55
2022-12-04T06:22:50.569Z,25.02
2022-12-04T06:25:17.001Z,25.55
2022-12-04T06:27:44.289Z,26.67
2022-12-04T06:30:10.793Z,25.40
2022-12-04T06:32:37.097Z,25.63
2022-12-04T06:35:04.208Z,26.27
2022-12-04T06:37:30.527Z,26.08
2022-12-04T06:39:59.791Z,25.15
2022-12-04T06:42:26.139Z,24.27
2022-12-04T06:44:52.569Z,26.60
2022-12-04T06:47:18.948Z,26.15
2022-12-04T06:49:48.696Z,25.48
2022-12-04T06:52:15.022Z,27.20
2022-12-04T06:54:41.357Z,28.65
2022-12-04T06:57:07.642Z,26.50
2022-12-04T06:59:33.998Z,27.88
2022-12-04T07:02:00.399Z,23.52
2022-12-04T07:04:26.806Z,28.80
2022-12-04T07:06:53.192Z,26.55
2022-12-04T07:09:19.557Z,26.85
2022-12-04T07:11:45.867Z,28.17
2022-12-04T07:14:13.142Z,27.98
2022-12-04T07:16:41.997Z,26.02
2022-12-04T07:19:13.250Z,28.00
2022-12-04T07:21:39.788Z,26.40
2022-12-04T07:24:06.301Z,27.38
2022-12-04T07:26:32.688Z,26.92
2022-12-04T07:28:59.584Z,26.88
2022-12-04T07:31:26.654Z,25.48
2022-12-04T07:33:53.952Z,27.00
2022-12-04T07:36:20.904Z,25.95
2022-12-04T07:38:47.404Z,27.08
2022-12-04T07:41:14.023Z,24.80
2022-12-04T07:43:40.833Z,25.77
2022-12-04T07:46:08.747Z,26.65
2022-12-04T07:48:35.058Z,25.20
2022-12-04T07:51:08.604Z,24.92
2022-12-04T07:53:35.511Z,26.15
2022-12-04T07:56:02.728Z,26.73
2022-12-04T07:58:29.160Z,24.92
2022-12-04T08:00:55.505Z,25.08
2022-12-04T08:03:21.942Z,25.88
2022-12-04T08:05:48.352Z,24.95
2022-12-04T08:08:14.731Z,26.25
2022-12-04T08:10:41.053Z,25.55
2022-12-04T08:13:07.852Z,23.90
2022-12-04T08:15:34.785Z,23.95
2022-12-04T08:18:01.085Z,25.23
2022-12-04T08:20:27.415Z,24.23
2022-12-04T08:22:53.744Z,25.30
2022-12-04T08:25:20.038Z,24.17
2022-12-04T08:27:47.930Z,24.35
2022-12-04T08:30:14.406Z,26.13
2022-12-04T08:32:40.842Z,25.92
2022-12-04T08:35:07.455Z,25.25
2022-12-04T08:37:33.756Z,26.10
2022-12-04T08:40:00.127Z,25.45
2022-12-04T08:42:26.402Z,23.85
2022-12-04T08:44:52.695Z,25.85
2022-12-04T08:47:19.020Z,24.38
2022-12-04T08:49:45.316Z,24.80
2022-12-04T08:52:11.637Z,25.17
2022-12-04T08:54:38.025Z,24.02
2022-12-04T08:57:04.413Z,23.17
2022-12-04T08:59:30.768Z,24.63
2022-12-04T09:01:57.167Z,23.40
2022-12-04T09:04:23.597Z,25.15
2022-12-04T09:06:49.959Z,24.65
2022-12-04T09:09:16.596Z,24.75
2022-12-04T09:11:44.889Z,24.50
2022-12-04T09:14:11.242Z,24.70
2022-12-04T09:16:38.129Z,24.95
2022-12-04T09:19:04.548Z,24.13
2022-12-04T09:21:30.905Z,20.98
2022-12-04T09:23:58.760Z,23.58
2022-12-04T09:26:25.322Z,24.73
2022-12-04T09:28:52.147Z,23.88
2022-12-04T09:31:19.005Z,24.58
2022-12-04T09:33:45.341Z,25.88
2022-12-04T09:36:17.852Z,24.85
2022-12-04T09:38:48.738Z,25.08
2022-12-04T09:41:15.072Z,26.00
2022-12-04T09:43:43.934Z,25.50
2022-12-04T09:46:13.024Z,25.67
2022-12-04T09:48:41.173Z,25.05
2022-12-04T09:51:16.427Z,25.75
2022-12-04T09:53:45.753Z,22.80
2022-12-04T09:56:13.889Z,24.65
2022-12-04T09:58:42.579Z,23.45
2022-12-04T10:01:17.554Z,25.88
2022-12-04T10:03:44.111Z,24.47
2022-12-04T10:06:19.296Z,25.63
2022-12-04T10:08:46.859Z,25.52
2022-12-04T10:11:21.154Z,25.55
2022-12-04T10:13:53.584Z,23.67
2022-12-04T10:16:22.741Z,25.05
2022-12-04T10:19:04.479Z,23.75
2022-12-04T10:22:06.212Z,24.50
2022-12-04T10:24:50.954Z,24.48
2022-12-04T10:27:29.107Z,24.00
2022-12-04T10:30:02.229Z,23.80
2022-12-04T10:32:34.820Z,25.23
2022-12-04T10:35:21.591Z,25.83
2022-12-04T10:37:51.680Z,23.48
2022-12-04T10:40:22.881Z,24.02
2022-12-04T10:42:54.623Z,24.13
2022-12-04T10:45:22.637Z,24.92
2022-12-04T10:47:49.627Z,23.55
2022-12-04T10:50:23.421Z,22.42
2022-12-04T10:52:50.226Z,23.42
2022-12-04T10:55:27.436Z,23.30
2022-12-04T10:57:53.789Z,21.90
2022-12-04T11:00:24.377Z,22.10
2022-12-04T11:02:51.689Z,20.50
2022-12-04T11:05:32.321Z,22.80
2022-12-04T11:07:59.789Z,22.42
2022-12-04T11:10:26.208Z,21.90
2022-12-04T11:12:55.693Z,22.13
2022-12-04T11:15:22.081Z,21.75
2022-12-04T11:17:48.514Z,21.67
2022-12-04T11:20:21.030Z,21.08
2022-12-04T11:22:57.563Z,19.10
2022-12-04T11:25:26.381Z,17.95
2022-12-04T11:27:54.536Z,19.17
2022-12-04T11:30:24.898Z,18.52
2022-12-04T11:32:52.108Z,18.23
2022-12-04T11:35:22.034Z,17.67
2022-12-04T11:37:53.884Z,17.70
2022-12-04T11:40:20.877Z,17.65
2022-12-04T11:43:07.519Z,17.80
2022-12-04T11:45:33.925Z,18.02
2022-12-04T11:48:02.119Z,16.42
2022-12-04T11:50:37.615Z,16.38
2022-12-04T11:53:24.190Z,16.73
2022-12-04T11:55:59.737Z,17.35
2022-12-04T11:58:45.023Z,15.65
2022-12-04T12:01:14.344Z,15.70
2022-12-04T12:03:52.734Z,15.68
2022-12-04T12:06:34.447Z,17.35
2022-12-04T12:09:20.143Z,16.40
2022-12-04T12:11:46.457Z,16.35
2022-12-04T12:14:14.353Z,16.75
2022-12-04T12:19:29.482Z,14.50
2022-12-04T12:21:55.747Z,15.95
2022-12-04T12:24:35.867Z,17.15
2022-12-04T12:27:08.539Z,16.45
2022-12-04T12:29:42.713Z,16.77
2022-12-04T12:32:15.100Z,16.75
2022-12-04T12:34:43.151Z,16.73
2022-12-04T12:37:16.094Z,16.15
2022-12-04T12:39:48.678Z,15.73
2022-12-04T12:42:18.677Z,15.45
2022-12-04T12:45:04.087Z,15.63
2022-12-04T12:47:34.421Z,17.10
2022-12-04T12:50:04.587Z,15.82
2022-12-04T12:52:41.529Z,14.63
2022-12-04T12:55:23.907Z,14.80
2022-12-04T12:58:13.734Z,15.75
2022-12-04T13:01:06.247Z,15.60
2022-12-04T13:03:35.471Z,15.77
2022-12-04T13:06:07.892Z,14.20
2022-12-04T13:08:37.854Z,15.52
2022-12-04T13:11:11.405Z,15.95
2022-12-04T13:13:53.182Z,15.65
2022-12-04T13:16:24.585Z,15.50
2022-12-04T13:19:07.584Z,14.90
2022-12-04T13:21:36.042Z,13.70
2022-12-04T13:24:25.428Z,13.10
2022-12-04T13:26:58.323Z,14.07
2022-12-04T13:29:37.249Z,13.80
2022-12-04T13:32:23.923Z,14.45
2022-12-04T13:35:22.467Z,14.05
2022-12-04T13:38:14.176Z,14.35
2022-12-04T13:40:44.991Z,14.23
2022-12-04T13:43:23.913Z,13.43
2022-12-04T13:45:51.798Z,13.05
2022-12-04T13:48:36.885Z,13.45
2022-12-04T13:51:22.135Z,11.93
2022-12-04T13:53:48.890Z,11.80
2022-12-04T13:56:25.127Z,12.07
2022-12-04T13:59:19.910Z,11.93
2022-12-04T14:01:48.606Z,11.25
2022-12-04T14:04:33.606Z,10.55
2022-12-04T14:07:00.609Z,11.13
2022-12-04T14:09:34.108Z,10.23
2022-12-04T14:12:02.008Z,10.63
2022-12-04T14:14:36.212Z,10.38
2022-12-04T14:17:03.889Z,10.15
2022-12-04T14:19:33.606Z,10.13
2022-12-04T14:22:00.230Z,9.35
2022-12-04T14:24:37.757Z,10.18
2022-12-04T14:27:22.719Z,9.55
2022-12-04T14:29:54.681Z,10.40
2022-12-04T14:32:29.359Z,9.68
2022-12-04T14:34:56.741Z,9.65
2022-12-04T14:37:27.289Z,9.70
2022-12-04T14:39:53.766Z,10.07
2022-12-04T14:42:25.440Z,9.73
2022-12-04T14:44:53.540Z,9.32
2022-12-04T14:47:40.950Z,10.27
2022-12-04T14:50:15.022Z,9.80
2022-12-04T14:52:46.354Z,9.45
2022-12-04T14:55:19.015Z,8.52
2022-12-04T14:57:52.046Z,9.38
2022-12-04T15:00:22.683Z,9.35
2022-12-04T15:02:50.033Z,8.73
2022-12-04T15:05:22.146Z,10.23
2022-12-04T15:07:49.988Z,8.55
2022-12-04T15:10:38.030Z,9.40
2022-12-04T15:13:04.313Z,9.00
2022-12-04T15:15:30.732Z,8.60
2022-12-04T15:17:57.967Z,9.70
2022-12-04T15:20:24.826Z,9.95
2022-12-04T15:22:51.235Z,10.65
2022-12-04T15:25:28.758Z,10.45
2022-12-04T15:28:01.202Z,9.55
2022-12-04T15:30:28.603Z,10.75
2022-12-04T15:32:54.991Z,10.05
2022-12-04T15:35:29.641Z,10.32
2022-12-04T15:37:56.173Z,8.63
2022-12-04T15:40:24.516Z,10.02
2022-12-04T15:42:51.350Z,10.23
2022-12-04T15:45:20.464Z,9.13
2022-12-04T15:47:46.771Z,10.43
2022-12-04T15:50:15.967Z,10.38
2022-12-04T15:52:50.016Z,9.90
2022-12-04T15:55:21.452Z,9.77
2022-12-04T15:57:52.537Z,10.98
2022-12-04T16:00:39.259Z,10.05
2022-12-04T16:03:07.652Z,11.60
2022-12-04T16:05:37.884Z,11.75
2022-12-04T16:08:24.738Z,10.63
2022-12-04T16:11:02.134Z,12.25
2022-12-04T16:13:30.387Z,12.30
2022-12-04T16:15:58.750Z,13.45
2022-12-04T16:18:25.255Z,12.95
2022-12-04T16:20:51.753Z,13.75
2022-12-04T16:23:18.144Z,13.32
2022-12-04T16:25:44.433Z,14.85
2022-12-04T16:28:10.726Z,15.18
2022-12-04T16:30:37.266Z,15.70
2022-12-04T16:33:03.649Z,15.60
2022-12-04T16:35:31.488Z,15.40
2022-12-04T16:37:57.912Z,13.88
2022-12-04T16:40:24.276Z,15.10
2022-12-04T16:42:50.594Z,15.00
2022-12-04T16:45:31.692Z,15.65
2022-12-04T16:47:58.440Z,16.20
2022-12-04T16:50:25.570Z,15.70
2022-12-04T16:52:52.205Z,15.82
2022-12-04T16:55:26.396Z,16.38
2022-12-04T16:57:52.715Z,16.60
2022-12-04T17:00:19.492Z,16.15
2022-12-04T17:02:46.289Z,16.38
2022-12-04T17:05:18.839Z,16.52
2022-12-04T17:07:45.273Z,17.42
2022-12-04T17:10:13.292Z,17.15
2022-12-04T17:12:40.154Z,16.58
2022-12-04T17:15:07.144Z,17.88
2022-12-04T17:17:33.610Z,16.88
2022-12-04T17:19:59.963Z,17.70
2022-12-04T17:22:26.589Z,18.20
2022-12-04T17:24:56.076Z,17.90
2022-12-04T17:27:22.832Z,17.50
2022-12-04T17:29:49.213Z,16.95
2022-12-04T17:32:15.873Z,16.80
2022-12-04T17:34:42.175Z,17.02
2022-12-04T17:37:08.465Z,16.80
2022-12-04T17:39:34.991Z,17.20
2022-12-04T17:42:01.375Z,16.00
2022-12-04T17:44:27.718Z,17.60
2022-12-04T17:46:54.669Z,16.95
2022-12-04T17:49:21.078Z,16.85
2022-12-04T17:51:47.366Z,16.88
2022-12-04T17:54:13.732Z,16.65
2022-12-04T17:56:44.564Z,18.35
2022-12-04T17:59:14.039Z,17.10
2022-12-04T18:01:40.430Z,16.73
2022-12-04T18:04:07.922Z,17.77
2022-12-04T18:06:38.336Z,18.58
2022-12-04T18:09:05.883Z,17.98
2022-12-04T18:11:33.340Z,17.60
2022-12-04T18:14:00.600Z,17.92
2022-12-04T18:16:27.527Z,16.85
2022-12-04T18:18:54.431Z,17.58
2022-12-04T18:21:20.803Z,17.20
2022-12-04T18:23:47.325Z,17.85
2022-12-04T18:26:15.086Z,15.35
2022-12-04T18:28:41.951Z,17.77
2022-12-04T18:31:08.643Z,17.48
2022-12-04T18:33:37.234Z,17.10
2022-12-04T18:36:04.559Z,17.20
2022-12-04T18:38:31.997Z,16.88
2022-12-04T18:41:02.014Z,16.95
2022-12-04T18:43:28.576Z,16.42
2022-12-04T18:46:02.736Z,16.25
2022-12-04T18:48:33.725Z,15.85
2022-12-04T18:51:00.379Z,16.20
2022-12-04T18:53:27.010Z,16.77
2022-12-04T18:55:53.893Z,18.10
2022-12-04T18:58:21.536Z,17.42
2022-12-04T19:00:48.382Z,17.60
2022-12-04T19:03:14.807Z,17.08
2022-12-04T19:05:48.388Z,16.77
2022-12-04T19:08:14.862Z,16.08
2022-12-04T19:10:41.372Z,16.52
2022-12-04T19:13:07.729Z,15.75
2022-12-04T19:15:34.186Z,15.05
2022-12-04T19:18:00.489Z,15.80
2022-12-04T19:20:26.786Z,13.60
2022-12-04T19:22:53.147Z,14.70
2022-12-04T19:25:19.450Z,14.35
2022-12-04T19:27:46.137Z,15.93
2022-12-04T19:30:13.055Z,14.98
2022-12-04T19:32:39.370Z,14.75
2022-12-04T19:35:05.820Z,14.82
2022-12-04T19:37:32.122Z,14.98
2022-12-04T19:39:58.773Z,15.85
2022-12-04T19:42:25.238Z,15.15
2022-12-04T19:44:51.525Z,14.15
2022-12-04T19:47:18.459Z,14.52
2022-12-04T19:49:44.845Z,14.38
2022-12-04T19:52:11.816Z,14.15
2022-12-04T19:54:38.169Z,13.32
2022-12-04T19:57:04.534Z,13.35
2022-12-04T19:59:36.457Z,13.80
2022-12-04T20:02:04.212Z,14.55
2022-12-04T20:04:30.596Z,13.85
2022-12-04T20:06:56.950Z,13.70
2022-12-04T20:09:25.096Z,15.20
2022-12-04T20:11:51.553Z,13.88
2022-12-04T20:14:17.871Z,14.05
2022-12-04T20:16:44.872Z,12.80
2022-12-04T20:19:13.122Z,14.63
2022-12-04T20:21:39.486Z,15.05
2022-12-04T20:24:06.835Z,14.10
2022-12-04T20:26:35.759Z,14.00
2022-12-04T20:29:02.314Z,15.25
2022-12-04T20:31:32.946Z,15.13
2022-12-04T20:34:00.290Z,14.93
2022-12-04T20:36:27.902Z,14.90
2022-12-04T20:39:01.057Z,14.23
2022-12-04T20:41:28.241Z,16.13
2022-12-04T20:43:55.061Z,16.17
2022-12-04T20:46:25.762Z,15.55
2022-12-04T20:48:53.492Z,14.73
2022-12-04T20:51:24.335Z,16.02
2022-12-04T20:53:51.344Z,15.57
2022-12-04T20:56:18.732Z,16.83
2022-12-04T20:58:45.499Z,14.50
2022-12-04T21:01:14.527Z,17.48
2022-12-04T21:03:41.439Z,16.77
2022-12-04T21:06:22.674Z,17.17
2022-12-04T21:08:52.957Z,18.65
2022-12-04T21:11:20.251Z,17.48
2022-12-04T21:14:04.983Z,17.98
2022-12-04T21:16:31.545Z,17.80
2022-12-04T21:18:57.915Z,18.13
2022-12-04T21:21:26.005Z,17.77
2022-12-04T21:23:52.611Z,17.77
2022-12-04T21:26:19.052Z,17.13
2022-12-04T21:28:45.360Z,17.58
2022-12-04T21:31:11.741Z,17.63
2022-12-04T21:33:38.115Z,18.30
2022-12-04T21:36:06.065Z,17.52
2022-12-04T21:38:34.483Z,17.75
2022-12-04T21:41:02.227Z,18.45
2022-12-04T21:43:29.465Z,17.75
2022-12-04T21:45:56.707Z,17.75
2022-12-04T21:48:23.194Z,17.70
2022-12-04T21:50:49.523Z,18.50
2022-12-04T21:53:15.851Z,17.77
2022-12-04T21:55:48.895Z,17.60
2022-12-04T21:58:15.578Z,17.33
2022-12-04T22:00:42.087Z,17.70
2022-12-04T22:03:08.555Z,17.75
2022-12-04T22:05:35.144Z,18.48
2022-12-04T22:08:01.632Z,18.55
2022-12-04T22:10:28.209Z,17.90
2022-12-04T22:12:54.535Z,17.67
2022-12-04T22:15:21.027Z,17.98
2022-12-04T22:17:47.334Z,17.52
2022-12-04T22:20:13.662Z,18.30
2022-12-04T22:22:39.975Z,17.50
2022-12-04T22:25:06.369Z,19.17
2022-12-04T22:27:32.666Z,17.35
2022-12-04T22:29:59.286Z,19.83
2022-12-04T22:32:25.613Z,18.02
2022-12-04T22:34:52.182Z,19.05
2022-12-04T22:37:18.490Z,18.98
2022-12-04T22:39:44.829Z,18.08
2022-12-04T22:42:11.146Z,17.75
2022-12-04T22:44:37.470Z,18.52
2022-12-04T22:47:03.916Z,19.00
2022-12-04T22:49:30.289Z,16.40
2022-12-04T22:51:56.692Z,17.83
2022-12-04T22:54:22.986Z,16.73
2022-12-04T22:56:49.272Z,16.58
2022-12-04T22:59:15.580Z,18.13
2022-12-04T23:01:41.906Z,17.60
2022-12-04T23:04:08.242Z,16.98
2022-12-04T23:06:34.592Z,16.38
2022-12-04T23:09:02.373Z,17.25
2022-12-04T23:11:28.806Z,17.10
2022-12-04T23:14:02.132Z,16.73
2022-12-04T23:16:29.555Z,17.80
2022-12-04T23:18:56.138Z,18.30
2022-12-04T23:21:22.958Z,15.63
2022-12-04T23:23:49.668Z,18.23
2022-12-04T23:26:17.320Z,17.33
2022-12-04T23:28:44.084Z,17.10
2022-12-04T23:31:11.234Z,15.40
2022-12-04T23:33:38.775Z,14.82
2022-12-04T23:36:05.660Z,16.40
2022-12-04T23:38:32.060Z,15.85
2022-12-04T23:41:01.809Z,15.90
2022-12-04T23:43:28.320Z,15.10
2022-12-04T23:45:54.625Z,15.68
2022-12-04T23:48:20.941Z,16.17
2022-12-04T23:50:47.261Z,16.20
2022-12-04T23:53:13.618Z,15.73
2022-12-04T23:55:39.929Z,17.58
2022-12-04T23:58:06.363Z,15.57
